Terminal Aerodrome Forecast
Issued by NWS

Home | Current Version | Previous Version | Graphics & Text | Print | Product List | Glossary On
Versions: 1 2 3 4 5 6 7 8 9 10 11 12 13 14 15 16
000
FTUS43 KGRB 181634 AAA
TAFATW
TAF AMD
KATW 181634Z 1817/1912 06010G17KT P6SM OVC018
     FM182100 02014G20KT 5SM -SN OVC020
      TEMPO 1821/1901 2SM -SN OVC015
     FM190200 01014G21KT P6SM BKN040
     FM190500 01013G20KT P6SM SCT060=

USA.gov is the U.S. government's official web portal to all federal, state and local government web resources and services.